Airfield :
LOGIN :

Register | Disclaimer

   EN    FR    IT 

 










Legend :    VFR   Marginal VFR   IFR   Intensive IFR   Very Intensive IFR
Visi :
Ceiling :
>= 8 km
>= 3000ft
5 to 8 km
1000 to 3000 ft
1500m to 5 km
500 to 1000 ft
800 to 1500m
200 to 500 ft
< 800m
< 200 ft
Symbols :   Thunderstorms  Fog  Heavy snow  Heavy precipitations  Wind > 20 kt
SIGMETs :     Misc.  Thunderstorms  Icing  Turbulence  Mountain Waves  Volcanic Ashes






- Airport Elevation : 144 ft
- IATA code : PGF


LFMP - Perpignan

CURRENT METAR :
  • 182030Z AUTO 32021G36KT 290V350 9999 FEW034/// BKN094/// BKN130/// 16/09 Q1018 NOSIG

EXPIRED METARs :
  • 182000Z AUTO 32017G29KT 280V360 9999 FEW040/// BKN094/// BKN140/// 18/08 Q1017 TEMPO 31030G40KT
  • 181930Z AUTO 32017G27KT 9999 FEW045/// OVC086/// 19/09 Q1017 TEMPO 31030G40KT
  • 181900Z AUTO 30017G27KT 270V330 9999 FEW050/// OVC082/// 19/08 Q1016 TEMPO 31030G40KT
  • 181830Z AUTO 27006G17KT 190V320 9999 FEW054/// SCT070/// OVC080/// 18/10 Q1017 TEMPO 31030G40KT
  • 181800Z AUTO 05004KT 030V090 9999 SCT058/// OVC068/// 17/10 Q1016 TEMPO 31030G40KT SHRA BKN030TCU

TAF TAF LFMP
Valid from the 18 at 15:00 until the 19 at 15:00 UTC


181400Z 1815/1915 06010KT 9999 NSC
TEMPO 1815/1819 31015G30KT SHRA BKN030TCU
TEMPO 1819/1823 31030G40KT BKN015
BECMG 1823/1901 31015G30KT BKN020
BECMG 1909/1911 NSW NSC
BECMG 1911/1914 31030G40KT
ATIS : +33 4 68 63 75 12



MET'MAP, your aeronautical weather chart ! - Copyright ORBIFLY December 2007 - Disclaimer

ORBIFLY MET'MAP TEAM :

Programming & Development : Alexandra Zaïnal
Concept & original design : Baudouin d'Aumeries
Assistance for programming : Marc-Olivier Méhu
Technical & hardware support : Manuel Goepfert

Contact : metmap@orbifly.com




SOURCES & CREDITS :

   NOAA